createdAt,value
2024-05-09T00:00:18.157Z,14.93
2024-05-09T00:02:44.243Z,14.43
2024-05-09T00:05:06.239Z,14.40
2024-05-09T00:07:28.112Z,14.70
2024-05-09T00:09:49.932Z,14.43
2024-05-09T00:12:11.851Z,15.63
2024-05-09T00:14:33.772Z,13.27
2024-05-09T00:16:55.685Z,13.70
2024-05-09T00:19:17.624Z,14.67
2024-05-09T00:21:45.430Z,13.73
2024-05-09T00:24:07.241Z,14.60
2024-05-09T00:26:29.220Z,14.27
2024-05-09T00:28:51.173Z,13.07
2024-05-09T00:31:18.129Z,15.17
2024-05-09T00:33:40.187Z,12.13
2024-05-09T00:36:02.226Z,14.03
2024-05-09T00:38:24.082Z,13.73
2024-05-09T00:40:46.024Z,13.20
2024-05-09T00:43:08.047Z,12.73
2024-05-09T00:45:29.832Z,13.40
2024-05-09T00:47:53.985Z,12.80
2024-05-09T00:50:22.729Z,14.73
2024-05-09T00:52:51.529Z,12.93
2024-05-09T00:55:16.818Z,12.57
2024-05-09T00:57:39.859Z,12.30
2024-05-09T01:00:01.995Z,13.07
2024-05-09T01:02:23.954Z,12.40
2024-05-09T01:04:45.997Z,13.43
2024-05-09T01:07:11.128Z,13.07
2024-05-09T01:09:33.187Z,14.83
2024-05-09T01:11:55.132Z,12.50
2024-05-09T01:14:17.055Z,12.60
2024-05-09T01:16:40.075Z,12.27
2024-05-09T01:19:04.598Z,14.17
2024-05-09T01:21:26.602Z,12.57
2024-05-09T01:23:48.491Z,13.67
2024-05-09T01:26:10.416Z,14.37
2024-05-09T01:28:32.261Z,13.33
2024-05-09T01:30:54.240Z,13.23
2024-05-09T01:33:16.292Z,13.00
2024-05-09T01:35:41.357Z,13.47
2024-05-09T01:38:04.412Z,10.87
2024-05-09T01:40:36.190Z,11.03
2024-05-09T01:43:01.665Z,13.77
2024-05-09T01:45:23.641Z,12.90
2024-05-09T01:47:45.678Z,12.23
2024-05-09T01:50:10.716Z,11.77
2024-05-09T01:52:36.656Z,13.13
2024-05-09T01:55:00.105Z,12.53
2024-05-09T01:57:23.980Z,12.03
2024-05-09T01:59:45.810Z,12.03
2024-05-09T02:02:07.732Z,11.30
2024-05-09T02:04:30.618Z,11.77
2024-05-09T02:06:54.921Z,12.25
2024-05-09T02:09:16.748Z,10.47
2024-05-09T02:11:48.087Z,11.93
2024-05-09T02:14:11.197Z,11.07
2024-05-09T02:16:33.204Z,11.90
2024-05-09T02:18:55.080Z,13.23
2024-05-09T02:21:16.997Z,11.53
2024-05-09T02:23:39.046Z,9.97
2024-05-09T02:26:00.879Z,10.30
2024-05-09T02:28:22.760Z,10.63
2024-05-09T02:30:44.561Z,12.07
2024-05-09T02:33:08.591Z,11.27
2024-05-09T02:35:31.106Z,11.33
2024-05-09T02:37:53.070Z,12.17
2024-05-09T02:40:25.169Z,10.80
2024-05-09T02:42:50.896Z,10.83
2024-05-09T02:45:12.825Z,12.40
2024-05-09T02:47:34.821Z,11.50
2024-05-09T02:49:58.828Z,11.43
2024-05-09T02:52:21.977Z,12.30
2024-05-09T02:54:43.930Z,11.57
2024-05-09T02:57:06.051Z,11.80
2024-05-09T02:59:28.048Z,10.93
2024-05-09T03:01:49.980Z,11.40
2024-05-09T03:04:12.016Z,11.13
2024-05-09T03:06:33.906Z,10.80
2024-05-09T03:08:55.810Z,11.70
2024-05-09T03:11:24.986Z,12.40
2024-05-09T03:13:47.011Z,11.63
2024-05-09T03:16:08.829Z,13.13
2024-05-09T03:18:30.776Z,10.67
2024-05-09T03:20:52.683Z,12.40
2024-05-09T03:23:14.538Z,9.70
2024-05-09T03:25:36.388Z,13.30
2024-05-09T03:27:58.303Z,9.97
2024-05-09T03:30:26.206Z,10.37
2024-05-09T03:32:57.524Z,10.87
2024-05-09T03:35:19.594Z,10.67
2024-05-09T03:37:41.546Z,11.07
2024-05-09T03:40:07.363Z,11.67
2024-05-09T03:42:33.458Z,10.43
2024-05-09T03:44:55.238Z,9.67
2024-05-09T03:47:17.976Z,9.20
2024-05-09T03:49:39.956Z,10.40
2024-05-09T03:52:05.324Z,10.50
2024-05-09T03:54:27.760Z,11.03
2024-05-09T03:56:49.539Z,10.57
2024-05-09T03:59:11.392Z,10.27
2024-05-09T04:01:33.397Z,9.93
2024-05-09T04:03:56.012Z,11.00
2024-05-09T04:06:24.030Z,11.17
2024-05-09T04:08:46.027Z,10.97
2024-05-09T04:11:07.946Z,10.40
2024-05-09T04:13:29.796Z,11.23
2024-05-09T04:15:52.568Z,8.67
2024-05-09T04:18:17.856Z,11.67
2024-05-09T04:20:41.188Z,10.67
2024-05-09T04:23:03.681Z,10.27
2024-05-09T04:25:25.613Z,8.90
2024-05-09T04:27:47.487Z,10.57
2024-05-09T04:30:18.432Z,11.73
2024-05-09T04:32:44.149Z,11.77
2024-05-09T04:35:06.458Z,10.17
2024-05-09T04:37:30.174Z,9.43
2024-05-09T04:39:52.041Z,10.23
2024-05-09T04:42:14.910Z,9.23
2024-05-09T04:44:36.758Z,10.73
2024-05-09T04:46:58.759Z,9.80
2024-05-09T04:49:20.908Z,11.13
2024-05-09T04:51:42.785Z,8.33
2024-05-09T04:54:05.542Z,9.80
2024-05-09T04:56:27.710Z,10.20
2024-05-09T04:58:50.453Z,11.60
2024-05-09T05:01:12.360Z,11.97
2024-05-09T05:03:34.451Z,11.17
2024-05-09T05:05:56.630Z,10.17
2024-05-09T05:08:19.580Z,10.63
2024-05-09T05:10:42.811Z,14.73
2024-05-09T05:13:22.849Z,13.65
2024-05-09T05:15:46.942Z,14.93
2024-05-09T05:18:08.944Z,13.27
2024-05-09T05:20:33.741Z,12.87
2024-05-09T05:22:57.477Z,12.87
2024-05-09T05:25:19.316Z,15.20
2024-05-09T05:27:41.168Z,13.33
2024-05-09T05:30:03.544Z,14.87
2024-05-09T05:32:27.712Z,14.87
2024-05-09T05:34:49.713Z,12.53
2024-05-09T05:37:11.600Z,15.07
2024-05-09T05:39:33.418Z,15.40
2024-05-09T05:41:56.767Z,15.90
2024-05-09T05:44:18.741Z,15.00
2024-05-09T05:46:40.562Z,14.10
2024-05-09T05:49:02.422Z,15.30
2024-05-09T05:51:24.328Z,15.90
2024-05-09T05:53:46.366Z,14.77
2024-05-09T05:56:08.337Z,15.43
2024-05-09T05:58:30.173Z,13.97
2024-05-09T06:00:53.634Z,15.93
2024-05-09T06:03:15.879Z,18.33
2024-05-09T06:05:40.233Z,16.57
2024-05-09T06:08:02.679Z,16.67
2024-05-09T06:10:30.020Z,17.57
2024-05-09T06:12:59.959Z,13.17
2024-05-09T06:15:21.749Z,17.47
2024-05-09T06:17:43.830Z,17.10
2024-05-09T06:20:13.267Z,18.73
2024-05-09T06:22:38.812Z,17.70
2024-05-09T06:25:00.610Z,18.33
2024-05-09T06:27:22.422Z,18.90
2024-05-09T06:29:44.290Z,18.07
2024-05-09T06:32:06.850Z,18.53
2024-05-09T06:34:28.933Z,17.17
2024-05-09T06:36:50.840Z,19.43
2024-05-09T06:39:12.669Z,19.27
2024-05-09T06:41:34.519Z,17.53
2024-05-09T06:43:56.518Z,17.97
2024-05-09T06:46:18.674Z,20.00
2024-05-09T06:48:42.834Z,17.93
2024-05-09T06:51:05.313Z,19.05
2024-05-09T06:53:27.448Z,19.90
2024-05-09T06:55:49.988Z,20.87
2024-05-09T06:58:12.029Z,22.53
2024-05-09T07:00:39.088Z,21.37
2024-05-09T07:03:08.520Z,25.47
2024-05-09T07:05:30.632Z,23.10
2024-05-09T07:07:52.489Z,21.03
2024-05-09T07:10:21.951Z,24.03
2024-05-09T07:12:50.335Z,25.90
2024-05-09T07:15:12.177Z,22.33
2024-05-09T07:17:34.146Z,23.47
2024-05-09T07:19:56.191Z,34.37
2024-05-09T07:22:18.181Z,29.93
2024-05-09T07:24:40.101Z,29.33
2024-05-09T07:27:01.948Z,38.63
2024-05-09T07:29:24.001Z,43.87
2024-05-09T07:31:45.851Z,46.23
2024-05-09T07:34:07.839Z,48.17
2024-05-09T07:36:29.772Z,59.47
2024-05-09T07:38:51.751Z,63.87
2024-05-09T07:41:14.611Z,65.63
2024-05-09T07:43:37.840Z,66.93
2024-05-09T07:46:37.781Z,88.20
2024-05-09T07:53:40.466Z,102.53
2024-05-09T07:56:07.202Z,131.25
2024-05-09T07:58:29.516Z,144.60
2024-05-09T08:00:51.487Z,186.15
2024-05-09T08:03:13.360Z,227.60
2024-05-09T08:05:35.564Z,239.63
2024-05-09T08:07:57.594Z,329.13
2024-05-09T08:10:24.459Z,351.42
2024-05-09T08:12:49.172Z,355.70
2024-05-09T08:15:11.917Z,382.35
2024-05-09T08:17:33.814Z,404.45
2024-05-09T08:19:56.264Z,395.23
2024-05-09T08:22:18.211Z,382.58
2024-05-09T08:24:40.204Z,405.27
2024-05-09T08:27:02.356Z,413.50
2024-05-09T08:29:24.199Z,297.65
2024-05-09T08:31:46.068Z,294.55
2024-05-09T08:34:07.988Z,232.77
2024-05-09T08:36:29.944Z,181.43
2024-05-09T08:38:51.851Z,141.30
2024-05-09T08:41:15.698Z,144.77
2024-05-09T08:43:39.890Z,166.70
2024-05-09T08:46:07.350Z,208.68
2024-05-09T08:48:34.294Z,215.60
2024-05-09T08:50:59.442Z,192.45
2024-05-09T08:53:21.646Z,230.80
2024-05-09T08:55:46.025Z,235.88
2024-05-09T09:00:38.381Z,201.45
2024-05-09T09:03:03.032Z,213.25
2024-05-09T09:05:31.267Z,205.82
2024-05-09T09:07:53.361Z,266.85
2024-05-09T09:10:28.841Z,235.55
2024-05-09T09:13:00.133Z,277.90
2024-05-09T09:15:23.613Z,301.20
2024-05-09T09:17:58.864Z,268.20
2024-05-09T09:20:26.420Z,326.92
2024-05-09T09:22:55.719Z,314.05
2024-05-09T09:25:17.614Z,238.00
2024-05-09T09:27:39.672Z,320.95
2024-05-09T09:30:02.881Z,319.02
2024-05-09T09:32:29.014Z,243.85
2024-05-09T09:34:52.303Z,295.52
2024-05-09T09:37:19.191Z,281.63
2024-05-09T09:39:42.089Z,227.77
2024-05-09T09:42:05.691Z,346.83
2024-05-09T09:44:30.595Z,381.63
2024-05-09T09:46:58.978Z,240.20
2024-05-09T09:49:23.716Z,336.80
2024-05-09T09:51:47.262Z,325.45
2024-05-09T09:54:10.171Z,310.67
2024-05-09T09:56:35.284Z,313.35
2024-05-09T09:58:58.842Z,405.80
2024-05-09T10:01:20.923Z,377.47
2024-05-09T10:03:43.113Z,402.73
2024-05-09T10:06:07.646Z,418.98
2024-05-09T10:10:51.995Z,316.15
2024-05-09T10:13:14.269Z,439.90
2024-05-09T10:15:50.771Z,339.23
2024-05-09T10:18:13.145Z,275.65
2024-05-09T10:20:42.740Z,302.85
2024-05-09T10:23:05.483Z,374.00
2024-05-09T10:25:27.405Z,334.90
2024-05-09T10:27:55.983Z,309.52
2024-05-09T10:30:29.926Z,347.52
2024-05-09T10:32:57.737Z,314.13
2024-05-09T10:35:21.260Z,334.02
2024-05-09T10:37:43.756Z,390.63
2024-05-09T10:40:12.035Z,447.42
2024-05-09T10:42:39.335Z,355.13
2024-05-09T10:45:02.227Z,393.83
2024-05-09T10:47:25.164Z,327.02
2024-05-09T10:49:49.128Z,393.77
2024-05-09T10:52:11.142Z,564.97
2024-05-09T10:54:39.750Z,461.30
2024-05-09T10:57:01.609Z,432.75
2024-05-09T10:59:24.435Z,456.48
2024-05-09T11:01:46.430Z,507.77
2024-05-09T11:04:08.648Z,334.17
2024-05-09T11:06:31.065Z,408.27
2024-05-09T11:08:53.355Z,367.48
2024-05-09T11:11:16.488Z,518.58
2024-05-09T11:13:40.712Z,367.83
2024-05-09T11:16:04.163Z,429.33
2024-05-09T11:18:30.760Z,356.35
2024-05-09T11:20:57.131Z,398.67
2024-05-09T11:23:21.817Z,501.08
2024-05-09T11:25:52.377Z,412.10
2024-05-09T11:28:14.417Z,422.15
2024-05-09T11:30:36.440Z,459.00
2024-05-09T11:32:58.924Z,432.92
2024-05-09T11:35:21.080Z,439.77
2024-05-09T11:37:42.981Z,432.13
2024-05-09T11:40:11.426Z,402.98
2024-05-09T11:42:35.548Z,471.42
2024-05-09T11:44:57.395Z,463.23
2024-05-09T11:47:21.633Z,436.80
2024-05-09T11:49:43.788Z,447.77
2024-05-09T11:52:05.876Z,483.83
2024-05-09T11:54:27.853Z,414.58
2024-05-09T11:56:51.682Z,418.50
2024-05-09T11:59:13.557Z,434.70
2024-05-09T12:01:35.624Z,475.30
2024-05-09T12:03:57.812Z,473.02
2024-05-09T12:06:20.340Z,446.42
2024-05-09T12:08:42.206Z,490.42
2024-05-09T12:11:04.528Z,502.25
2024-05-09T12:13:26.528Z,426.63
2024-05-09T12:15:48.508Z,512.13
2024-05-09T12:18:10.797Z,445.08
2024-05-09T12:20:38.383Z,472.67
2024-05-09T12:23:01.999Z,515.40
2024-05-09T12:25:23.842Z,447.45
2024-05-09T12:27:46.763Z,455.90
2024-05-09T12:30:11.558Z,443.92
2024-05-09T12:32:36.205Z,409.92
2024-05-09T12:34:58.097Z,412.63
2024-05-09T12:37:20.150Z,408.50
2024-05-09T12:39:42.062Z,358.48
2024-05-09T12:42:04.516Z,463.70
2024-05-09T12:44:26.344Z,455.77
2024-05-09T12:46:48.654Z,391.38
2024-05-09T12:49:10.816Z,279.65
2024-05-09T12:51:34.323Z,262.42
2024-05-09T12:53:56.243Z,406.85
2024-05-09T12:56:18.513Z,427.35
2024-05-09T12:58:40.426Z,451.48
2024-05-09T13:01:02.305Z,444.63
2024-05-09T13:03:25.989Z,481.98
2024-05-09T13:05:49.876Z,458.38
2024-05-09T13:08:13.382Z,396.40
2024-05-09T13:10:35.653Z,487.30
2024-05-09T13:12:57.684Z,389.00
2024-05-09T13:15:19.629Z,345.00
2024-05-09T13:17:41.753Z,362.17
2024-05-09T13:20:05.607Z,443.90
2024-05-09T13:22:27.570Z,314.88
2024-05-09T13:24:49.636Z,315.85
2024-05-09T13:27:11.703Z,474.00
2024-05-09T13:29:33.579Z,384.90
2024-05-09T13:31:55.432Z,455.55
2024-05-09T13:34:17.487Z,404.15
2024-05-09T13:36:39.810Z,387.15
2024-05-09T13:39:02.209Z,451.70
2024-05-09T13:41:24.210Z,336.65
2024-05-09T13:43:46.002Z,421.48
2024-05-09T13:46:08.437Z,509.48
2024-05-09T13:48:31.028Z,469.83
2024-05-09T13:50:53.094Z,413.67
2024-05-09T13:53:15.042Z,484.98
2024-05-09T13:55:40.761Z,442.40
2024-05-09T13:58:03.259Z,363.48
2024-05-09T14:02:50.103Z,455.50
2024-05-09T14:05:12.114Z,442.70
2024-05-09T14:07:34.112Z,398.13
2024-05-09T14:09:56.121Z,422.77
2024-05-09T14:12:18.191Z,407.65
2024-05-09T14:14:40.051Z,330.83
2024-05-09T14:17:01.976Z,327.52
2024-05-09T14:19:23.902Z,397.92
2024-05-09T14:21:45.894Z,264.75
2024-05-09T14:24:07.864Z,278.33
2024-05-09T14:26:29.865Z,347.63
2024-05-09T14:28:51.849Z,419.98
2024-05-09T14:31:13.750Z,368.42
2024-05-09T14:33:36.648Z,369.48
2024-05-09T14:35:58.935Z,348.65
2024-05-09T14:38:21.058Z,293.70
2024-05-09T14:40:44.166Z,258.15
2024-05-09T14:43:06.240Z,306.23
2024-05-09T14:45:28.486Z,357.33
2024-05-09T14:47:50.944Z,309.60
2024-05-09T14:50:19.588Z,318.63
2024-05-09T14:52:49.354Z,328.80
2024-05-09T14:55:12.342Z,258.30
2024-05-09T14:57:35.430Z,256.08
2024-05-09T14:59:57.320Z,254.55
2024-05-09T15:02:19.369Z,330.67
2024-05-09T15:04:41.543Z,443.10
2024-05-09T15:07:04.061Z,471.15
2024-05-09T15:09:26.579Z,513.30
2024-05-09T15:11:48.512Z,377.98
2024-05-09T15:14:10.305Z,420.17
2024-05-09T15:16:32.356Z,507.02
2024-05-09T15:18:54.569Z,487.60
2024-05-09T15:21:16.501Z,390.02
2024-05-09T15:23:38.356Z,373.52
2024-05-09T15:26:00.458Z,393.95
2024-05-09T15:28:22.684Z,442.90
2024-05-09T15:30:46.560Z,408.40
2024-05-09T15:35:31.619Z,352.55
2024-05-09T15:37:53.709Z,366.40
2024-05-09T15:40:25.994Z,458.75
2024-05-09T15:42:56.939Z,508.83
2024-05-09T15:45:18.918Z,518.45
2024-05-09T15:47:40.954Z,514.17
2024-05-09T15:50:03.555Z,507.60
2024-05-09T15:52:25.631Z,413.20
2024-05-09T15:54:47.532Z,402.98
2024-05-09T15:57:09.998Z,366.38
2024-05-09T15:59:31.994Z,412.75
2024-05-09T16:01:54.503Z,424.02
2024-05-09T16:04:16.696Z,468.48
2024-05-09T16:06:39.702Z,525.97
2024-05-09T16:09:01.988Z,427.38
2024-05-09T16:11:24.288Z,435.63
2024-05-09T16:13:46.157Z,406.40
2024-05-09T16:16:08.420Z,465.75
2024-05-09T16:18:30.409Z,502.85
2024-05-09T16:20:59.546Z,422.50
2024-05-09T16:23:21.361Z,416.75
2024-05-09T16:25:46.096Z,408.38
2024-05-09T16:28:10.486Z,365.35
2024-05-09T16:30:35.445Z,299.65
2024-05-09T16:32:58.360Z,378.23
2024-05-09T16:35:20.263Z,393.33
2024-05-09T16:37:42.173Z,329.35
2024-05-09T16:40:05.868Z,342.63
2024-05-09T16:42:31.368Z,388.73
2024-05-09T16:44:53.691Z,388.63
2024-05-09T16:47:15.747Z,289.60
2024-05-09T16:49:37.598Z,287.85
2024-05-09T16:51:59.694Z,358.10
2024-05-09T16:54:21.566Z,356.13
2024-05-09T16:56:43.562Z,432.52
2024-05-09T16:59:05.623Z,366.73
2024-05-09T17:01:28.858Z,340.58
2024-05-09T17:03:51.001Z,299.25
2024-05-09T17:06:13.341Z,359.95
2024-05-09T17:08:37.020Z,360.10
2024-05-09T17:10:59.279Z,376.58
2024-05-09T17:13:22.745Z,385.90
2024-05-09T17:15:45.354Z,461.07
2024-05-09T17:18:07.796Z,328.13
2024-05-09T17:20:34.346Z,452.70
2024-05-09T17:22:58.442Z,347.23
2024-05-09T17:25:20.443Z,378.13
2024-05-09T17:27:42.543Z,310.63
2024-05-09T17:30:06.369Z,324.35
2024-05-09T17:32:29.948Z,292.88
2024-05-09T17:34:51.934Z,278.83
2024-05-09T17:37:13.896Z,258.85
2024-05-09T17:39:35.826Z,266.92
2024-05-09T17:41:57.659Z,275.25
2024-05-09T17:44:19.557Z,257.63
2024-05-09T17:46:42.482Z,372.20
2024-05-09T17:49:04.686Z,399.92
2024-05-09T17:51:26.758Z,396.13
2024-05-09T17:53:48.586Z,328.92
2024-05-09T17:56:10.737Z,379.02
2024-05-09T17:58:33.039Z,408.10
2024-05-09T18:00:55.280Z,347.45
2024-05-09T18:03:17.571Z,289.40
2024-05-09T18:05:52.633Z,259.48
2024-05-09T18:08:14.644Z,280.92
2024-05-09T18:11:04.611Z,281.92
2024-05-09T18:13:26.940Z,434.27
2024-05-09T18:15:49.056Z,355.08
2024-05-09T18:18:11.923Z,480.52
2024-05-09T18:20:42.171Z,424.35
2024-05-09T18:23:07.146Z,354.67
2024-05-09T18:25:28.942Z,434.35
2024-05-09T18:27:50.957Z,444.70
2024-05-09T18:30:24.128Z,460.50
2024-05-09T18:32:53.495Z,388.08
2024-05-09T18:35:15.604Z,444.83
2024-05-09T18:37:40.378Z,433.58
2024-05-09T18:40:02.329Z,454.42
2024-05-09T18:42:24.570Z,371.48
2024-05-09T18:44:46.534Z,478.60
2024-05-09T18:47:10.424Z,313.30
2024-05-09T18:49:32.553Z,324.88
2024-05-09T18:51:54.532Z,320.02
2024-05-09T18:54:16.395Z,367.52
2024-05-09T18:56:38.253Z,406.88
2024-05-09T18:59:00.162Z,478.60
2024-05-09T19:01:22.138Z,512.50
2024-05-09T19:03:44.358Z,490.42
2024-05-09T19:06:06.699Z,477.48
2024-05-09T19:08:29.820Z,469.80
2024-05-09T19:10:52.909Z,434.75
2024-05-09T19:13:15.219Z,376.70
2024-05-09T19:15:40.352Z,279.23
2024-05-09T19:18:03.737Z,319.98
2024-05-09T19:20:31.886Z,257.25
2024-05-09T19:22:56.640Z,257.45
2024-05-09T19:25:19.399Z,231.25
2024-05-09T19:27:42.526Z,201.05
2024-05-09T19:30:13.897Z,153.75
2024-05-09T19:32:41.070Z,145.23
2024-05-09T19:35:03.060Z,134.95
2024-05-09T19:37:24.961Z,137.93
2024-05-09T19:39:47.382Z,147.35
2024-05-09T19:42:09.252Z,159.13
2024-05-09T19:44:31.201Z,149.20
2024-05-09T19:46:53.261Z,140.60
2024-05-09T19:49:15.227Z,142.10
2024-05-09T19:52:06.543Z,134.38
2024-05-09T19:54:28.448Z,101.45
2024-05-09T19:56:50.366Z,81.20
2024-05-09T19:59:13.049Z,75.00
2024-05-09T20:01:35.076Z,65.28
2024-05-09T20:03:59.216Z,60.00
2024-05-09T20:06:24.422Z,55.60
2024-05-09T20:08:46.220Z,54.67
2024-05-09T20:11:33.505Z,54.97
2024-05-09T20:13:56.962Z,61.73
2024-05-09T20:16:19.617Z,59.37
2024-05-09T20:18:41.758Z,67.23
2024-05-09T20:21:04.097Z,81.07
2024-05-09T20:23:26.019Z,106.50
2024-05-09T20:25:47.790Z,62.03
2024-05-09T20:28:11.416Z,61.50
2024-05-09T20:30:35.300Z,51.13
2024-05-09T20:35:19.721Z,67.80
2024-05-09T20:37:41.556Z,55.33
2024-05-09T20:40:05.072Z,41.93
2024-05-09T20:42:29.648Z,41.77
2024-05-09T20:44:51.455Z,40.40
2024-05-09T20:47:14.852Z,32.37
2024-05-09T20:49:36.806Z,31.10
2024-05-09T20:51:58.870Z,36.43
2024-05-09T20:54:20.770Z,32.67
2024-05-09T20:56:43.230Z,37.20
2024-05-09T20:59:05.018Z,44.47
2024-05-09T21:01:27.017Z,53.07
2024-05-09T21:03:49.099Z,46.03
2024-05-09T21:06:11.374Z,49.53
2024-05-09T21:08:33.223Z,40.67
2024-05-09T21:10:55.313Z,33.97
2024-05-09T21:13:17.409Z,25.63
2024-05-09T21:15:39.514Z,27.97
2024-05-09T21:18:01.845Z,22.17
2024-05-09T21:20:30.971Z,27.53
2024-05-09T21:22:55.308Z,28.77
2024-05-09T21:25:17.296Z,24.33
2024-05-09T21:27:39.367Z,24.10
2024-05-09T21:30:01.219Z,20.33
2024-05-09T21:32:23.164Z,23.87
2024-05-09T21:34:45.177Z,18.43
2024-05-09T21:37:07.238Z,20.93
2024-05-09T21:39:30.292Z,23.77
2024-05-09T21:41:52.235Z,23.40
2024-05-09T21:44:14.090Z,25.07
2024-05-09T21:46:36.152Z,23.97
2024-05-09T21:48:58.216Z,19.20
2024-05-09T21:51:21.148Z,23.43
2024-05-09T21:53:43.001Z,26.83
2024-05-09T21:56:05.412Z,23.00
2024-05-09T21:58:27.382Z,28.00
2024-05-09T22:00:49.348Z,27.13
2024-05-09T22:03:12.385Z,26.00
2024-05-09T22:05:34.974Z,24.37
2024-05-09T22:07:58.985Z,26.20
2024-05-09T22:10:26.463Z,25.88
2024-05-09T22:12:54.221Z,26.40
2024-05-09T22:15:16.095Z,30.27
2024-05-09T22:17:41.182Z,24.60
2024-05-09T22:20:07.411Z,27.47
2024-05-09T22:22:33.729Z,30.47
2024-05-09T22:24:55.676Z,27.10
2024-05-09T22:27:17.923Z,24.43
2024-05-09T22:29:39.820Z,28.73
2024-05-09T22:32:01.741Z,30.43
2024-05-09T22:34:23.694Z,27.90
2024-05-09T22:36:45.750Z,34.80
2024-05-09T22:39:07.657Z,31.60
2024-05-09T22:41:29.572Z,33.03
2024-05-09T22:43:51.404Z,33.93
2024-05-09T22:46:16.545Z,31.13
2024-05-09T22:48:38.816Z,41.77
2024-05-09T22:51:00.798Z,28.17
2024-05-09T22:53:25.028Z,28.73
2024-05-09T22:55:47.064Z,34.78
2024-05-09T22:58:08.924Z,32.30
2024-05-09T23:00:32.618Z,33.03
2024-05-09T23:02:55.033Z,30.45
2024-05-09T23:05:17.050Z,36.03
2024-05-09T23:07:39.052Z,26.60
2024-05-09T23:10:00.963Z,31.93
2024-05-09T23:12:22.903Z,33.40
2024-05-09T23:14:45.346Z,27.93
2024-05-09T23:17:07.201Z,32.57
2024-05-09T23:19:29.140Z,28.00
2024-05-09T23:21:51.168Z,34.73
2024-05-09T23:24:13.222Z,28.87
2024-05-09T23:26:35.198Z,32.13
2024-05-09T23:28:57.135Z,31.07
2024-05-09T23:31:19.031Z,29.77
2024-05-09T23:33:47.199Z,31.97
2024-05-09T23:36:09.221Z,36.10
2024-05-09T23:38:31.058Z,35.30
2024-05-09T23:40:52.943Z,40.17
2024-05-09T23:43:14.973Z,34.43
2024-05-09T23:45:37.273Z,30.77
2024-05-09T23:47:59.875Z,35.40
2024-05-09T23:50:30.231Z,30.80
2024-05-09T23:52:55.821Z,31.40
2024-05-09T23:55:17.976Z,29.23
2024-05-09T23:57:41.071Z,31.07
